Romoe Maersk — OXLC2 — position and weather

sailwx.info

Track history (hours):
 
Tides and Currents Weather Stations Pressure Air Temp Water Temp Dewpoint Dewpoint Depression Visibility Wind Speed Wind Dir Waves Ship Positions

Romoe Maersk

Last reported at 2017-Oct-18 16:27 UTC. Time now 2017-Oct-22 23:12 UTC.
Position N 01°18' E 103°21'.

Length 171 m; draft 7.7 m.

Type: Ship. MMSI: 220209000.

Date/timePositionNaut miles runAvg speedWind from/ knotsBaromVisibWave heightAir tempDewpointWater temp
2017-Oct-18 16:27N 01°18' E 103°21'812.4
2017-Oct-18 15:47N 01°13' E 103°28'412.5
2017-Oct-18 15:30N 01°13' E 103°32'712.6
2017-Oct-18 14:59N 01°12' E 103°38'8 8.3
2017-Oct-18 14:01N 01°17' E 103°45'1 1.8
2017-Oct-18 13:31N 01°18' E 103°44'0 0.0
2017-Oct-18 12:57N 01°18' E 103°44'0 0.0
2017-Oct-18 12:21N 01°18' E 103°44'0 0.0
2017-Oct-18 11:54N 01°18' E 103°44'0 0.0
2017-Oct-18 10:45N 01°18' E 103°44'0 0.0
2017-Oct-18 10:30N 01°18' E 103°44'0 0.0
2017-Oct-18 09:51N 01°18' E 103°44'0 0.0
2017-Oct-18 08:57N 01°18' E 103°44'0 0.0
2017-Oct-18 08:27N 01°18' E 103°44'0 0.0
2017-Oct-18 07:54N 01°18' E 103°44'0 0.0
2017-Oct-18 07:27N 01°18' E 103°44'0 0.0
2017-Oct-18 06:57N 01°18' E 103°44'0 0.0
2017-Oct-18 06:30N 01°18' E 103°44'0 0.0
2017-Oct-18 05:57N 01°18' E 103°44'0 0.0
2017-Oct-18 05:30N 01°18' E 103°44'5 9.3
2017-Oct-18 05:00N 01°14' E 103°47'2 3.2
2017-Oct-18 04:30N 01°13' E 103°48'1 2.6
2017-Oct-18 04:00N 01°12' E 103°49'1 2.6
2017-Oct-18 03:30N 01°12' E 103°51'1 2.7
2017-Oct-18 02:59N 01°13' E 103°52'919.1
2017-Oct-18 02:30N 01°18' E 103°44'0 0.0
2017-Oct-18 01:57N 01°18' E 103°44'0 0.0
2017-Oct-18 01:30N 01°18' E 103°44'14 8.8
2017-Oct-17 23:54N 01°17' E 103°58'0 0.2
2017-Oct-17 21:14N 01°17' E 103°59'0 1.3
2017-Oct-17 20:59N 01°17' E 103°59'1 1.7
2017-Oct-17 20:31N 01°16' E 103°59'1 1.2
2017-Oct-17 20:00N 01°16' E 103°60'1530.5
2017-Oct-17 19:30N 01°18' E 103°44'1 2.1
2017-Oct-17 19:00N 01°17' E 103°45'5 9.8
2017-Oct-17 18:30N 01°13' E 103°48'4 8.4
2017-Oct-17 18:00N 01°13' E 103°52'611.4
2017-Oct-17 17:30N 01°16' E 103°57'612.1
2017-Oct-17 16:59N 01°17' E 104°03'5 7.4
2017-Oct-17 16:19N 01°17' E 103°58'0 0.0
2017-Oct-17 10:22N 01°17' E 103°58'0 0.0
2017-Oct-17 09:52N 01°17' E 103°58'0 0.2
2017-Oct-17 09:26N 01°17' E 103°58'1 3.3
2017-Oct-17 08:59N 01°16' E 103°59'2 4.4
2017-Oct-17 08:27N 01°16' E 104°01'3 6.4
2017-Oct-17 07:55N 01°17' E 104°05'5 9.3
2017-Oct-17 07:22N 01°17' E 104°10'18 1.4
2017-Oct-16 18:49N 01°12' E 103°53'1 2.1
2017-Oct-16 18:23N 01°11' E 103°52'1 2.4
2017-Oct-16 17:59N 01°11' E 103°51'5 2.4
2017-Oct-16 15:53N 01°08' E 103°47'14 1.8
2017-Oct-16 07:58N 01°14' E 103°60'3 6.0
2017-Oct-16 07:30N 01°13' E 103°57'612.1
2017-Oct-16 07:00N 01°11' E 103°51'612.6
2017-Oct-16 06:30N 01°08' E 103°46'713.6
2017-Oct-16 05:59N 01°03' E 103°41'712.2
2017-Oct-16 05:24N 01°05' E 103°34'613.8
2017-Oct-16 04:59N 01°08' E 103°29'  
Track history (hours):
 
Tides and Currents Weather Stations Pressure Air Temp Water Temp Dewpoint Dewpoint Depression Visibility Wind Speed Wind Dir Waves Ship Positions

Romoe Maersk

Last reported at 2017-Oct-18 16:27 UTC. Time now 2017-Oct-22 23:12 UTC.
Position N 01°18' E 103°21'.

Length 171 m; draft 7.7 m.

Type: Ship. MMSI: 220209000.

Date/timePositionNaut miles runAvg speedWind from/ knotsBaromVisibWave heightAir tempDewpointWater temp
2017-Oct-18 16:27N 01°18' E 103°21'812.4
2017-Oct-18 15:47N 01°13' E 103°28'412.5
2017-Oct-18 15:30N 01°13' E 103°32'712.6
2017-Oct-18 14:59N 01°12' E 103°38'8 8.3
2017-Oct-18 14:01N 01°17' E 103°45'1 1.8
2017-Oct-18 13:31N 01°18' E 103°44'0 0.0
2017-Oct-18 12:57N 01°18' E 103°44'0 0.0
2017-Oct-18 12:21N 01°18' E 103°44'0 0.0
2017-Oct-18 11:54N 01°18' E 103°44'0 0.0
2017-Oct-18 10:45N 01°18' E 103°44'0 0.0
2017-Oct-18 10:30N 01°18' E 103°44'0 0.0
2017-Oct-18 09:51N 01°18' E 103°44'0 0.0
2017-Oct-18 08:57N 01°18' E 103°44'0 0.0
2017-Oct-18 08:27N 01°18' E 103°44'0 0.0
2017-Oct-18 07:54N 01°18' E 103°44'0 0.0
2017-Oct-18 07:27N 01°18' E 103°44'0 0.0
2017-Oct-18 06:57N 01°18' E 103°44'0 0.0
2017-Oct-18 06:30N 01°18' E 103°44'0 0.0
2017-Oct-18 05:57N 01°18' E 103°44'0 0.0
2017-Oct-18 05:30N 01°18' E 103°44'5 9.3
2017-Oct-18 05:00N 01°14' E 103°47'2 3.2
2017-Oct-18 04:30N 01°13' E 103°48'1 2.6
2017-Oct-18 04:00N 01°12' E 103°49'1 2.6
2017-Oct-18 03:30N 01°12' E 103°51'1 2.7
2017-Oct-18 02:59N 01°13' E 103°52'919.1
2017-Oct-18 02:30N 01°18' E 103°44'0 0.0
2017-Oct-18 01:57N 01°18' E 103°44'0 0.0
2017-Oct-18 01:30N 01°18' E 103°44'14 8.8
2017-Oct-17 23:54N 01°17' E 103°58'0 0.2
2017-Oct-17 21:14N 01°17' E 103°59'0 1.3
2017-Oct-17 20:59N 01°17' E 103°59'1 1.7
2017-Oct-17 20:31N 01°16' E 103°59'1 1.2
2017-Oct-17 20:00N 01°16' E 103°60'1530.5
2017-Oct-17 19:30N 01°18' E 103°44'1 2.1
2017-Oct-17 19:00N 01°17' E 103°45'5 9.8
2017-Oct-17 18:30N 01°13' E 103°48'4 8.4
2017-Oct-17 18:00N 01°13' E 103°52'611.4
2017-Oct-17 17:30N 01°16' E 103°57'612.1
2017-Oct-17 16:59N 01°17' E 104°03'5 7.4
2017-Oct-17 16:19N 01°17' E 103°58'0 0.0
2017-Oct-17 10:22N 01°17' E 103°58'0 0.0
2017-Oct-17 09:52N 01°17' E 103°58'0 0.2
2017-Oct-17 09:26N 01°17' E 103°58'1 3.3
2017-Oct-17 08:59N 01°16' E 103°59'2 4.4
2017-Oct-17 08:27N 01°16' E 104°01'3 6.4
2017-Oct-17 07:55N 01°17' E 104°05'5 9.3
2017-Oct-17 07:22N 01°17' E 104°10'18 1.4
2017-Oct-16 18:49N 01°12' E 103°53'1 2.1
2017-Oct-16 18:23N 01°11' E 103°52'1 2.4
2017-Oct-16 17:59N 01°11' E 103°51'5 2.4
2017-Oct-16 15:53N 01°08' E 103°47'14 1.8
2017-Oct-16 07:58N 01°14' E 103°60'3 6.0
2017-Oct-16 07:30N 01°13' E 103°57'612.1
2017-Oct-16 07:00N 01°11' E 103°51'612.6
2017-Oct-16 06:30N 01°08' E 103°46'713.6
2017-Oct-16 05:59N 01°03' E 103°41'712.2
2017-Oct-16 05:24N 01°05' E 103°34'613.8
2017-Oct-16 04:59N 01°08' E 103°29'  

Dump ship's entire track history